• Join FlightAware (Why Join?)
  • Login
  • US Flag 
01:41PM EST


 

Airport Tracker/Info


-or-


 

Live Flight TrackerFlight Track Log ✈ N3920C ✈ 17-Apr-2014 ✈ KPTS - KPTT

Flight Track Log - Related Links

Times and Time Zones

All times are in EDT time to prevent confusion due to time zone crossing. See the N3920C flight status page for this flight to view local times or setup timezone preferences in your user account.

Time Position Orientation Groundspeed Altitude Reporting Facility
EDT Latitude Longitude Course Direction KTS MPH feet Rate Location/Type
09:53PM 37.4808 -94.9750 273° West 130 150 7,300  Level Kansas City Center
09:54PM 37.4814 -95.0186 271° West 130 150 8,400 1,020 Climbing Kansas City Center
09:55PM 37.4808 -95.0625 269° West 129 148 9,500 1,020 Climbing Kansas City Center
09:56PM 37.4667 -94.9906 270° West  Level FlightAware Approximate
09:56PM 37.4794 -95.1072 268° West 129 148 10,500  Level Kansas City Center
09:57PM 37.4667 -95.0463 270° West  Level FlightAware Approximate
09:57PM 37.4814 -95.1556 273° West 129 148 11,500  Level Kansas City Center
09:58PM 37.4872 -95.2117 277° West 130 150 12,700 1,020 Climbing Kansas City Center
09:59PM 37.4928 -95.2561 279° West 131 151 13,700 600 Climbing Kansas City Center
10:00PM 37.4936 -95.3083 271° West 143 165 14,000 180 Climbing Kansas City Center
10:01PM 37.4967 -95.3706 274° West 172 198 14,100  Climbing Kansas City Center
10:02PM 37.5017 -95.4331 276° West 179 206 14,100 -60 Level Kansas City Center
10:03PM 37.5092 -95.4964 279° West 180 207 14,000 -60 Descending Kansas City Center
10:04PM 37.5156 -95.5594 277° West 181 208 14,000  Level Kansas City Center
10:05PM 37.5214 -95.6236 277° West 181 208 14,000  Level Kansas City Center
10:06PM 37.5264 -95.6994 275° West 184 212 14,000  Level Kansas City Center
10:07PM 37.5319 -95.7642 276° West 183 211 14,000  Level Kansas City Center
10:08PM 37.5367 -95.8281 275° West 183 211 14,000  Level Kansas City Center
10:09PM 37.5408 -95.8919 275° West 183 211 14,000  Level Kansas City Center
10:10PM 37.5431 -95.9556 273° West 183 211 14,000  Level Kansas City Center
10:11PM 37.5483 -96.0194 276° West 183 211 14,000  Level Kansas City Center
10:12PM 37.5514 -96.0828 274° West 183 211 14,000  Level Kansas City Center
10:13PM 37.5561 -96.1469 275° West 183 211 14,000  Level Kansas City Center
10:14PM 37.5603 -96.2106 275° West 183 211 14,000  Level Kansas City Center
10:15PM 37.5664 -96.2875 276° West 183 211 14,000  Level Kansas City Center
10:16PM 37.5717 -96.3517 276° West 183 211 14,000  Level Kansas City Center
10:17PM 37.5758 -96.4156 275° West 183 211 14,000  Level Kansas City Center
10:18PM 37.5803 -96.4747 275° West 184 212 14,000  Level Kansas City Center
10:19PM 37.5828 -96.5092 275° West 184 212 14,000  Level Kansas City Center
10:19PM 37.5853 -96.5328 278° West 184 212 14,000  Level Kansas City Center
10:19PM 37.5850 -96.5386 267° West 184 212 14,000  Level Kansas City Center
10:20PM 37.5881 -96.5983 274° West 183 211 14,000  Level Kansas City Center
10:20PM 37.5903 -96.6025 304° West 184 212 14,000  Level Kansas City Center
10:21PM 37.5925 -96.6611 273° West 184 212 14,000  Level Kansas City Center
10:22PM 37.5933 -96.6792 273° West 184 212 14,000  Level Kansas City Center
10:23PM 37.5964 -96.7439 273° West 184 212 14,000  Level Kansas City Center
10:23PM 37.5994 -96.7894 275° West 183 211 14,000  Level Kansas City Center
10:24PM 37.5989 -96.8081 268° West 184 212 14,000  Level Kansas City Center
10:24PM 37.6022 -96.8578 275° West 182 209 14,000  Level Kansas City Center
10:25PM 37.6031 -96.8717 274° West 184 212 14,000  Level Kansas City Center
10:26PM 37.6069 -96.9364 274° West 184 212 14,000  Level Kansas City Center
10:26PM 37.6125 -96.9989 276° West 184 212 14,000  Level Kansas City Center
10:28PM 37.6169 -97.0642 275° West 182 209 14,000  Level Kansas City Center
10:29PM 37.6192 -97.1272 273° West 181 208 14,000  Level Kansas City Center
10:29PM 37.6194 -97.1269 38° Northeast 183 211 14,000  Level Kansas City Center
10:30PM 37.6233 -97.1900 274° West 181 208 14,000  Level Kansas City Center
10:30PM 37.6233 -97.1897 90° East 183 211 14,000  Level Kansas City Center
10:30PM 37.6272 -97.2503 275° West 183 211 14,000  Level Kansas City Center
10:31PM 37.6278 -97.2678 272° West 183 211 14,000  Level Kansas City Center
10:31PM 37.6314 -97.3131 276° West 183 211 14,000  Level Kansas City Center
10:32PM 37.6317 -97.3303 271° West 183 211 14,000  Level Kansas City Center
10:32PM 37.6353 -97.3758 276° West 183 211 14,000  Level Kansas City Center
10:33PM 37.6344 -97.3947 267° West 183 211 14,000  Level Kansas City Center
10:33PM 37.6369 -97.4336 275° West 186 214 14,000  Level Kansas City Center
10:34PM 37.6381 -97.4606 273° West 184 212 14,000  Level Kansas City Center
10:34PM 37.6400 -97.5097 273° West 190 219 14,000  Level Kansas City Center
10:35PM 37.6431 -97.5228 286° West 183 211 14,000  Level Kansas City Center
10:35PM 37.6439 -97.5700 271° West 185 213 14,000  Level Kansas City Center
10:36PM 37.6461 -97.5886 279° West 183 211 14,000  Level Kansas City Center
10:36PM 37.6481 -97.6353 273° West 185 213 14,000  Level Kansas City Center
10:37PM 37.6503 -97.6542 278° West 184 212 14,000  Level Kansas City Center
10:37PM 37.6519 -97.6983 273° West 186 214 14,000  Level Kansas City Center
10:38PM 37.6539 -97.7197 277° West 184 212 14,000  Level Kansas City Center
10:39PM 37.6350 -97.7806 249° West 189 217 14,000  Level Kansas City Center
10:40PM 37.6119 -97.8414 244° Southwest 189 217 14,000  Level Kansas City Center
10:41PM 37.5836 -97.9139 244° Southwest 190 219 14,000 -300 Level Kansas City Center
10:42PM 37.5603 -97.9753 244° Southwest 190 219 13,400 -1,560 Descending Kansas City Center
10:43PM 37.5436 -98.0531 255° West 222 255 10,900 -1,860 Descending Kansas City Center
10:44PM 37.5553 -98.1325 281° West 229 264 9,700 -1,140 Descending Kansas City Center
10:45PM 37.5706 -98.2011 286° West 209 241 8,600 -900 Descending Kansas City Center
10:46PM 37.5856 -98.2675 286° West 203 234 7,900 -780 Descending Kansas City Center
10:47PM 37.6039 -98.3303 290° West 195 224 7,100 -840 Descending Kansas City Center